Time;durP1;ratioP1;P1;durP2;ratioP2;P2;SDS_P1;SDS_P2;PMS_P1;PMS_P2;Temp;Humidity;BMP_temperature;BMP_pressure;BME280_temperature;BME280_humidity;BME280_pressure;Samples;Min_cycle;Max_cycle;Signal;HPM_P1;HPM_P2
2024/01/12 00:00:58;;;;;;;27.77;15.45;;;;;;;;;;6292479;28;20040;-74
2024/01/12 00:04:00;;;;;;;24.88;12.52;;;;;;;;;;6277475;28;20032;-74
2024/01/12 00:07:02;;;;;;;20.15;13.95;;;;;;;;;;6284428;28;20610;-75
2024/01/12 00:10:06;;;;;;;24.63;14.82;;;;;;;;;;6273275;28;20502;-73
2024/01/12 00:13:08;;;;;;;24.40;14.35;;;;;;;;;;6267537;28;20048;-74
2024/01/12 00:16:11;;;;;;;14.63;7.00;;;;;;;;;;6288805;28;20075;-75
2024/01/12 00:19:12;;;;;;;26.30;14.02;;;;;;;;;;6296658;28;20039;-74
2024/01/12 00:22:15;;;;;;;13.13;9.02;;;;;;;;;;6299697;28;20332;-75
2024/01/12 00:25:17;;;;;;;21.35;12.88;;;;;;;;;;6293378;28;20041;-74
2024/01/12 00:28:19;;;;;;;19.35;11.85;;;;;;;;;;6278353;28;20051;-74
2024/01/12 00:31:22;;;;;;;31.90;15.90;;;;;;;;;;6297081;28;20119;-74
2024/01/12 00:34:24;;;;;;;14.15;8.90;;;;;;;;;;6277331;28;20048;-74
2024/01/12 00:37:28;;;;;;;10.52;7.88;;;;;;;;;;6296481;28;20059;-73
2024/01/12 00:40:30;;;;;;;17.08;12.25;;;;;;;;;;6316665;28;20197;-76
2024/01/12 00:43:33;;;;;;;20.48;10.75;;;;;;;;;;6274012;28;20163;-74
2024/01/12 00:46:36;;;;;;;28.95;16.15;;;;;;;;;;6254253;28;20044;-75
2024/01/12 00:49:38;;;;;;;13.23;8.30;;;;;;;;;;6295133;28;20173;-74
2024/01/12 00:52:40;;;;;;;17.70;11.65;;;;;;;;;;6276256;28;20053;-75
2024/01/12 00:55:42;;;;;;;11.60;7.63;;;;;;;;;;6272820;28;20048;-74
2024/01/12 00:58:44;;;;;;;23.75;16.00;;;;;;;;;;6279599;28;20051;-75
2024/01/12 01:01:46;;;;;;;19.85;14.30;;;;;;;;;;6314014;28;20048;-75
2024/01/12 01:04:51;;;;;;;8.45;5.65;;;;;;;;;;6274548;28;20060;-75
2024/01/12 01:07:53;;;;;;;15.50;9.02;;;;;;;;;;6255380;28;20048;-74
2024/01/12 01:10:55;;;;;;;23.75;11.88;;;;;;;;;;6258105;28;20160;-74
2024/01/12 01:13:58;;;;;;;14.73;10.30;;;;;;;;;;6274308;28;20139;-74
2024/01/12 01:17:00;;;;;;;17.30;11.30;;;;;;;;;;6295132;28;20589;-74
2024/01/12 01:20:03;;;;;;;17.20;9.13;;;;;;;;;;6294053;28;20041;-75
2024/01/12 01:23:05;;;;;;;7.00;5.43;;;;;;;;;;6258472;28;20071;-75
2024/01/12 01:26:08;;;;;;;16.38;10.70;;;;;;;;;;6286457;28;20178;-74
2024/01/12 01:29:10;;;;;;;13.57;9.00;;;;;;;;;;6262277;28;20077;-74
2024/01/12 01:32:12;;;;;;;15.07;10.63;;;;;;;;;;6257641;28;20056;-74
2024/01/12 01:35:16;;;;;;;19.92;12.23;;;;;;;;;;6288512;28;20048;-74
2024/01/12 01:38:18;;;;;;;31.33;17.80;;;;;;;;;;6275778;28;20071;-74
2024/01/12 01:41:20;;;;;;;17.38;7.68;;;;;;;;;;6300119;28;20040;-74
2024/01/12 01:44:25;;;;;;;16.48;11.55;;;;;;;;;;6275599;28;20178;-74
2024/01/12 01:47:27;;;;;;;18.55;13.65;;;;;;;;;;6271443;28;20054;-75
2024/01/12 01:50:31;;;;;;;22.63;13.07;;;;;;;;;;6303437;28;20499;-74
2024/01/12 01:53:34;;;;;;;20.95;11.52;;;;;;;;;;6266280;28;20876;-74
2024/01/12 01:56:38;;;;;;;25.35;14.20;;;;;;;;;;6258096;28;20044;-74
2024/01/12 01:59:41;;;;;;;29.88;16.48;;;;;;;;;;6238084;28;20040;-75
2024/01/12 02:02:45;;;;;;;18.38;9.25;;;;;;;;;;6252594;28;20048;-75
2024/01/12 02:05:48;;;;;;;15.77;11.73;;;;;;;;;;6281554;28;20562;-74
2024/01/12 02:08:52;;;;;;;21.23;14.07;;;;;;;;;;6260416;28;20071;-74
2024/01/12 02:11:54;;;;;;;18.52;11.60;;;;;;;;;;6264629;28;20103;-74
2024/01/12 02:14:57;;;;;;;15.25;11.57;;;;;;;;;;6293481;28;20411;-75
2024/01/12 02:17:59;;;;;;;13.52;6.72;;;;;;;;;;6249799;28;20082;-75
2024/01/12 02:21:01;;;;;;;15.30;9.98;;;;;;;;;;6303071;28;20692;-75
2024/01/12 02:24:04;;;;;;;15.18;10.55;;;;;;;;;;6273414;28;20642;-73
2024/01/12 02:27:07;;;;;;;7.10;5.53;;;;;;;;;;6235309;28;20097;-74
2024/01/12 02:30:10;;;;;;;12.00;7.97;;;;;;;;;;6277105;28;20697;-75
2024/01/12 02:33:13;;;;;;;14.07;7.63;;;;;;;;;;6251912;28;20040;-74
2024/01/12 02:36:15;;;;;;;17.15;9.88;;;;;;;;;;6240082;28;20056;-74
2024/01/12 02:39:17;;;;;;;11.93;7.85;;;;;;;;;;6267182;28;20076;-74
2024/01/12 02:42:19;;;;;;;20.13;11.98;;;;;;;;;;6288230;28;20138;-75
2024/01/12 02:45:21;;;;;;;15.52;10.32;;;;;;;;;;6260216;28;20080;-75
2024/01/12 02:48:23;;;;;;;24.13;13.95;;;;;;;;;;6293357;28;20050;-75
2024/01/12 02:51:26;;;;;;;20.80;14.63;;;;;;;;;;6290959;28;20094;-75
2024/01/12 02:54:28;;;;;;;10.18;6.22;;;;;;;;;;6269967;28;20052;-75
2024/01/12 02:57:31;;;;;;;21.90;11.43;;;;;;;;;;6262160;28;20036;-75
2024/01/12 03:00:34;;;;;;;15.02;10.18;;;;;;;;;;6268504;28;20522;-75
2024/01/12 03:03:36;;;;;;;17.70;9.15;;;;;;;;;;6274213;28;20049;-74
2024/01/12 03:06:39;;;;;;;10.43;6.38;;;;;;;;;;6290235;28;20464;-76
2024/01/12 03:09:41;;;;;;;5.38;4.88;;;;;;;;;;6311504;28;20435;-75
2024/01/12 03:12:43;;;;;;;23.00;9.40;;;;;;;;;;6287831;28;20047;-76
2024/01/12 03:15:46;;;;;;;9.43;7.32;;;;;;;;;;6299478;28;20129;-75
2024/01/12 03:18:49;;;;;;;10.85;8.32;;;;;;;;;;6300444;28;20048;-75
2024/01/12 03:21:51;;;;;;;11.73;8.05;;;;;;;;;;6285139;28;20614;-75
2024/01/12 03:24:54;;;;;;;13.88;7.85;;;;;;;;;;6290485;28;20404;-74
2024/01/12 03:27:58;;;;;;;10.48;5.95;;;;;;;;;;6268016;28;20048;-74
2024/01/12 03:31:01;;;;;;;18.65;7.50;;;;;;;;;;6307177;28;20032;-74
2024/01/12 03:34:03;;;;;;;9.73;7.50;;;;;;;;;;6260101;28;20047;-74
2024/01/12 03:37:06;;;;;;;8.38;6.55;;;;;;;;;;6283728;28;20079;-74
2024/01/12 03:40:10;;;;;;;12.60;8.30;;;;;;;;;;6254139;28;20121;-75
2024/01/12 03:43:12;;;;;;;11.25;5.82;;;;;;;;;;6278527;28;20699;-75
2024/01/12 03:46:14;;;;;;;14.55;7.50;;;;;;;;;;6261790;28;20139;-75
2024/01/12 03:49:17;;;;;;;9.57;6.55;;;;;;;;;;6254854;28;20040;-75
2024/01/12 03:52:23;;;;;;;15.98;10.40;;;;;;;;;;6285994;28;20049;-74
2024/01/12 03:55:25;;;;;;;13.48;8.20;;;;;;;;;;6274727;28;20051;-75
2024/01/12 03:58:27;;;;;;;16.13;10.23;;;;;;;;;;6298227;28;20113;-74
2024/01/12 04:01:29;;;;;;;23.52;14.55;;;;;;;;;;6293533;28;20042;-75
2024/01/12 04:04:31;;;;;;;23.52;14.50;;;;;;;;;;6295404;28;20048;-74
2024/01/12 04:07:33;;;;;;;21.40;8.85;;;;;;;;;;6293575;28;20617;-75
2024/01/12 04:10:36;;;;;;;20.30;10.85;;;;;;;;;;6280988;28;20040;-75
2024/01/12 04:13:38;;;;;;;16.48;10.50;;;;;;;;;;6304362;28;20668;-74
2024/01/12 04:16:40;;;;;;;9.05;6.45;;;;;;;;;;6294387;28;20089;-74
2024/01/12 04:19:43;;;;;;;26.23;12.30;;;;;;;;;;6274409;28;20591;-75
2024/01/12 04:22:45;;;;;;;12.20;8.38;;;;;;;;;;6253631;28;20072;-74
2024/01/12 04:25:48;;;;;;;12.77;5.72;;;;;;;;;;6288661;28;20048;-74
2024/01/12 04:28:50;;;;;;;13.50;6.10;;;;;;;;;;6274477;28;20048;-74
2024/01/12 04:31:53;;;;;;;23.33;12.63;;;;;;;;;;6251104;28;20044;-75
2024/01/12 04:34:56;;;;;;;12.82;8.10;;;;;;;;;;6266460;28;20049;-75
2024/01/12 04:37:59;;;;;;;19.25;8.77;;;;;;;;;;6273178;28;20100;-75
2024/01/12 04:41:01;;;;;;;23.42;13.88;;;;;;;;;;6295608;28;20055;-75
2024/01/12 04:44:04;;;;;;;17.23;11.15;;;;;;;;;;6291487;28;20048;-75
2024/01/12 04:47:06;;;;;;;16.80;9.35;;;;;;;;;;6277119;28;20048;-75
2024/01/12 04:50:09;;;;;;;27.20;16.38;;;;;;;;;;6260450;28;20041;-75
2024/01/12 04:53:11;;;;;;;27.23;15.77;;;;;;;;;;6277876;28;20059;-75
2024/01/12 04:56:16;;;;;;;6.82;5.55;;;;;;;;;;6277696;28;20048;-74
2024/01/12 04:59:18;;;;;;;17.20;10.00;;;;;;;;;;6281281;28;20055;-74
2024/01/12 05:02:20;;;;;;;24.02;13.38;;;;;;;;;;6281243;28;20130;-74
2024/01/12 05:05:22;;;;;;;16.85;8.95;;;;;;;;;;6280732;28;20051;-74
2024/01/12 05:08:25;;;;;;;17.77;11.32;;;;;;;;;;6268732;28;20813;-75
2024/01/12 05:11:28;;;;;;;16.02;8.57;;;;;;;;;;6293004;28;20048;-75
2024/01/12 05:14:33;;;;;;;14.57;9.40;;;;;;;;;;6263700;28;20570;-75
2024/01/12 05:17:36;;;;;;;10.73;9.48;;;;;;;;;;6267172;28;20596;-75
2024/01/12 05:20:39;;;;;;;11.20;7.93;;;;;;;;;;6273461;28;20426;-74
2024/01/12 05:23:44;;;;;;;26.33;15.07;;;;;;;;;;6236158;28;20671;-74
2024/01/12 05:26:47;;;;;;;33.85;18.75;;;;;;;;;;6266224;28;20052;-74
2024/01/12 05:29:49;;;;;;;20.80;11.18;;;;;;;;;;6255710;28;20518;-76
2024/01/12 05:32:52;;;;;;;15.65;9.55;;;;;;;;;;6293020;28;20454;-75
2024/01/12 05:35:54;;;;;;;12.40;8.45;;;;;;;;;;6305949;28;20048;-75
2024/01/12 05:39:28;;;;;;;12.00;8.40;;;;;;;;;;6274604;28;20060;-76
2024/01/12 05:42:31;;;;;;;11.75;7.45;;;;;;;;;;6273768;28;20098;-75
2024/01/12 05:45:33;;;;;;;8.70;6.25;;;;;;;;;;6305739;28;20376;-76
2024/01/12 05:48:35;;;;;;;10.23;6.72;;;;;;;;;;6280708;28;20044;-75
2024/01/12 05:51:38;;;;;;;17.00;9.63;;;;;;;;;;6274138;28;20036;-75
2024/01/12 05:54:42;;;;;;;20.30;11.73;;;;;;;;;;6292447;28;20047;-75
2024/01/12 05:57:46;;;;;;;14.18;8.27;;;;;;;;;;6291661;28;20534;-75
2024/01/12 06:00:50;;;;;;;19.98;9.60;;;;;;;;;;6259943;28;20134;-75
2024/01/12 06:03:53;;;;;;;25.08;11.70;;;;;;;;;;6298308;28;20040;-77
2024/01/12 06:06:55;;;;;;;16.20;11.55;;;;;;;;;;6270964;28;20044;-75
2024/01/12 06:09:57;;;;;;;21.75;12.30;;;;;;;;;;6251555;28;20071;-75
2024/01/12 06:12:59;;;;;;;14.82;9.65;;;;;;;;;;6241428;28;20044;-74
2024/01/12 06:16:02;;;;;;;12.95;7.25;;;;;;;;;;6268466;28;20087;-74
2024/01/12 06:19:04;;;;;;;10.93;6.38;;;;;;;;;;6303563;28;20147;-74
2024/01/12 06:22:09;;;;;;;17.15;9.35;;;;;;;;;;6285399;28;20048;-75
2024/01/12 06:25:12;;;;;;;16.33;9.20;;;;;;;;;;6289527;28;20041;-75
2024/01/12 06:28:14;;;;;;;32.53;16.50;;;;;;;;;;6255189;28;20523;-75
2024/01/12 06:31:16;;;;;;;18.42;9.00;;;;;;;;;;6275451;28;20048;-73
2024/01/12 06:34:18;;;;;;;8.75;6.35;;;;;;;;;;6291487;28;20080;-74
2024/01/12 06:37:20;;;;;;;11.75;9.13;;;;;;;;;;6270544;28;20041;-73
2024/01/12 06:40:23;;;;;;;14.32;11.05;;;;;;;;;;6265889;28;20126;-75
2024/01/12 06:43:25;;;;;;;10.10;6.70;;;;;;;;;;6284986;28;20044;-73
2024/01/12 06:46:28;;;;;;;12.30;7.70;;;;;;;;;;6290093;28;20134;-74
2024/01/12 06:49:30;;;;;;;25.45;13.43;;;;;;;;;;6268682;28;20493;-74
2024/01/12 06:52:33;;;;;;;22.13;13.10;;;;;;;;;;6258552;28;20049;-76
2024/01/12 06:55:36;;;;;;;32.00;15.15;;;;;;;;;;6219851;28;20080;-74
2024/01/12 06:58:40;;;;;;;28.08;13.77;;;;;;;;;;6275901;28;20569;-75
2024/01/12 07:01:42;;;;;;;29.33;16.35;;;;;;;;;;6273197;28;20043;-75
2024/01/12 07:04:45;;;;;;;15.43;10.25;;;;;;;;;;6272776;28;20078;-76
2024/01/12 07:07:48;;;;;;;24.70;13.90;;;;;;;;;;6299277;28;20127;-75
2024/01/12 07:10:50;;;;;;;29.85;14.15;;;;;;;;;;6295532;28;20025;-74
2024/01/12 07:13:52;;;;;;;16.75;11.40;;;;;;;;;;6303095;28;20441;-76
2024/01/12 07:16:55;;;;;;;25.75;15.00;;;;;;;;;;6297831;28;20050;-76
2024/01/12 07:19:57;;;;;;;32.90;14.48;;;;;;;;;;6266131;28;20463;-76
2024/01/12 07:23:00;;;;;;;22.40;14.55;;;;;;;;;;6299073;28;20036;-74
2024/01/12 07:26:02;;;;;;;22.05;11.38;;;;;;;;;;6259180;28;20404;-74
2024/01/12 07:29:05;;;;;;;15.55;9.95;;;;;;;;;;6267281;28;20049;-75
2024/01/12 07:32:07;;;;;;;20.88;11.70;;;;;;;;;;6294664;28;20100;-75
2024/01/12 07:35:11;;;;;;;12.23;8.50;;;;;;;;;;6275153;28;20219;-75
2024/01/12 07:38:13;;;;;;;21.15;8.43;;;;;;;;;;6292875;28;20048;-75
2024/01/12 07:41:16;;;;;;;15.05;9.82;;;;;;;;;;6277199;28;20109;-74
2024/01/12 07:44:18;;;;;;;12.15;6.82;;;;;;;;;;6274505;28;20055;-75
2024/01/12 07:47:21;;;;;;;12.40;8.48;;;;;;;;;;6277819;28;20135;-74
2024/01/12 07:50:23;;;;;;;19.73;9.98;;;;;;;;;;6295631;28;20041;-76
2024/01/12 07:53:26;;;;;;;28.30;15.05;;;;;;;;;;6294541;28;20050;-75
2024/01/12 07:56:28;;;;;;;15.23;9.68;;;;;;;;;;6285302;28;20051;-75
2024/01/12 07:59:31;;;;;;;16.15;10.32;;;;;;;;;;6290010;28;20048;-75
2024/01/12 08:02:33;;;;;;;11.85;7.13;;;;;;;;;;6287039;28;20047;-75
2024/01/12 08:05:35;;;;;;;25.40;12.80;;;;;;;;;;6296557;28;20041;-76
2024/01/12 08:08:38;;;;;;;12.23;7.75;;;;;;;;;;6308921;28;20502;-76
2024/01/12 08:11:40;;;;;;;7.93;7.10;;;;;;;;;;6291652;28;20033;-76
2024/01/12 08:14:43;;;;;;;18.02;10.48;;;;;;;;;;6287808;28;20057;-76
2024/01/12 08:17:45;;;;;;;10.50;6.95;;;;;;;;;;6272255;28;20044;-75
2024/01/12 08:20:48;;;;;;;10.57;6.35;;;;;;;;;;6272446;28;20048;-75
2024/01/12 08:23:56;;;;;;;23.45;11.20;;;;;;;;;;6271504;28;20422;-75
2024/01/12 08:26:59;;;;;;;21.65;11.48;;;;;;;;;;6289330;28;20025;-75
2024/01/12 08:30:01;;;;;;;8.38;5.40;;;;;;;;;;6314486;28;20426;-76
2024/01/12 08:33:04;;;;;;;11.82;9.27;;;;;;;;;;6258230;28;20032;-75
2024/01/12 08:36:07;;;;;;;16.33;10.35;;;;;;;;;;6265063;28;20053;-75
2024/01/12 08:39:09;;;;;;;12.00;6.78;;;;;;;;;;6266597;28;20036;-74
2024/01/12 08:42:11;;;;;;;22.10;10.18;;;;;;;;;;6257767;28;20834;-74
2024/01/12 08:45:14;;;;;;;17.80;10.27;;;;;;;;;;6268406;28;20644;-75
2024/01/12 08:48:19;;;;;;;23.08;11.73;;;;;;;;;;6271779;28;20059;-74
2024/01/12 08:51:23;;;;;;;16.75;9.25;;;;;;;;;;6294571;28;20137;-74
2024/01/12 08:54:27;;;;;;;13.20;8.07;;;;;;;;;;6282474;28;20063;-76
2024/01/12 08:57:30;;;;;;;13.10;8.30;;;;;;;;;;6274640;28;20782;-75
2024/01/12 09:00:33;;;;;;;11.80;8.02;;;;;;;;;;6263891;28;20066;-73
2024/01/12 09:03:36;;;;;;;21.40;12.18;;;;;;;;;;6287046;28;20044;-73
2024/01/12 09:06:41;;;;;;;27.35;15.13;;;;;;;;;;6250136;28;20623;-75
2024/01/12 09:09:44;;;;;;;20.95;10.57;;;;;;;;;;6282574;28;20059;-75
2024/01/12 09:12:49;;;;;;;19.83;10.23;;;;;;;;;;6286913;28;20040;-75
2024/01/12 09:15:52;;;;;;;20.73;9.10;;;;;;;;;;6270495;28;20044;-75
2024/01/12 09:18:55;;;;;;;16.88;9.60;;;;;;;;;;6276206;28;20047;-74
2024/01/12 09:21:58;;;;;;;19.27;10.70;;;;;;;;;;6277577;28;20052;-74
2024/01/12 09:25:00;;;;;;;30.20;16.50;;;;;;;;;;6285236;28;20486;-74
2024/01/12 09:28:02;;;;;;;23.90;13.93;;;;;;;;;;6249664;28;20139;-75
2024/01/12 09:31:05;;;;;;;22.27;13.25;;;;;;;;;;6267389;28;20059;-74
2024/01/12 09:34:07;;;;;;;19.95;11.38;;;;;;;;;;6280878;28;20048;-76
2024/01/12 09:37:10;;;;;;;16.85;11.00;;;;;;;;;;6282731;28;20054;-74
2024/01/12 09:40:12;;;;;;;19.95;12.23;;;;;;;;;;6249728;28;20049;-76
2024/01/12 09:43:15;;;;;;;23.05;13.25;;;;;;;;;;6281424;28;20566;-76
2024/01/12 09:46:18;;;;;;;20.33;11.82;;;;;;;;;;6250796;28;20205;-74
2024/01/12 09:49:22;;;;;;;23.92;12.23;;;;;;;;;;6297632;28;20550;-76
2024/01/12 09:52:25;;;;;;;18.75;10.23;;;;;;;;;;6288896;28;20040;-76
2024/01/12 09:55:28;;;;;;;27.27;14.98;;;;;;;;;;6241327;28;20048;-76
2024/01/12 09:58:31;;;;;;;21.67;11.05;;;;;;;;;;6276873;28;20189;-75
2024/01/12 10:01:33;;;;;;;22.60;9.75;;;;;;;;;;6267184;28;20056;-74
2024/01/12 10:04:35;;;;;;;16.52;9.68;;;;;;;;;;6282695;28;20044;-75
2024/01/12 10:07:37;;;;;;;25.50;12.60;;;;;;;;;;6272844;28;20056;-76
2024/01/12 10:10:40;;;;;;;25.33;12.45;;;;;;;;;;6249985;28;20048;-74
2024/01/12 10:13:44;;;;;;;19.60;11.77;;;;;;;;;;6277263;28;20045;-74
2024/01/12 10:16:57;;;;;;;25.50;14.18;;;;;;;;;;6291729;28;20049;-75
2024/01/12 10:19:59;;;;;;;20.50;10.80;;;;;;;;;;6303562;28;20025;-75
2024/01/12 10:23:03;;;;;;;19.92;13.13;;;;;;;;;;6295953;28;20146;-75
2024/01/12 10:26:06;;;;;;;13.60;8.32;;;;;;;;;;6232769;28;20084;-75
2024/01/12 10:29:08;;;;;;;17.38;9.80;;;;;;;;;;6273127;28;20067;-77
2024/01/12 10:32:10;;;;;;;20.05;9.65;;;;;;;;;;6260212;28;20032;-75
2024/01/12 10:35:13;;;;;;;24.88;14.10;;;;;;;;;;6296036;28;20075;-74
2024/01/12 10:38:16;;;;;;;18.95;13.23;;;;;;;;;;6274705;28;20044;-74
2024/01/12 10:41:24;;;;;;;17.77;11.52;;;;;;;;;;6275985;28;20720;-75
2024/01/12 10:44:27;;;;;;;18.17;9.70;;;;;;;;;;6249035;28;20052;-75
2024/01/12 10:47:32;;;;;;;21.52;12.18;;;;;;;;;;6256890;28;20530;-76
2024/01/12 10:50:42;;;;;;;19.95;11.82;;;;;;;;;;6307445;28;20048;-75
2024/01/12 10:54:24;;;;;;;24.60;14.93;;;;;;;;;;6281274;28;20602;-75
2024/01/12 10:57:26;;;;;;;19.27;10.95;;;;;;;;;;6274256;28;20106;-76
2024/01/12 11:00:30;;;;;;;22.55;13.60;;;;;;;;;;6235828;28;20073;-76
2024/01/12 11:03:33;;;;;;;29.92;17.13;;;;;;;;;;6283225;28;20143;-75
2024/01/12 11:06:36;;;;;;;26.75;12.98;;;;;;;;;;6267748;28;20079;-76
2024/01/12 11:09:38;;;;;;;24.58;12.68;;;;;;;;;;6271616;28;21324;-76
2024/01/12 11:12:42;;;;;;;23.42;11.27;;;;;;;;;;6283884;28;20136;-75
2024/01/12 11:15:45;;;;;;;34.33;18.35;;;;;;;;;;6290869;28;20707;-75
2024/01/12 11:18:47;;;;;;;26.73;14.20;;;;;;;;;;6299772;28;20257;-75
2024/01/12 11:21:50;;;;;;;17.27;10.73;;;;;;;;;;6276879;28;20052;-75
2024/01/12 11:24:52;;;;;;;17.33;9.32;;;;;;;;;;6277629;28;20471;-76
2024/01/12 11:27:57;;;;;;;22.35;12.02;;;;;;;;;;6244991;28;20494;-75
2024/01/12 11:31:00;;;;;;;18.35;10.77;;;;;;;;;;6273752;28;20060;-75
2024/01/12 11:34:02;;;;;;;16.80;10.77;;;;;;;;;;6266209;28;20187;-75
2024/01/12 11:37:08;;;;;;;22.60;12.13;;;;;;;;;;6302522;28;20049;-75
2024/01/12 11:40:15;;;;;;;20.73;11.95;;;;;;;;;;6275807;28;20198;-75
2024/01/12 11:43:17;;;;;;;28.65;15.90;;;;;;;;;;6276828;28;20622;-76
2024/01/12 11:46:20;;;;;;;26.27;14.52;;;;;;;;;;6243131;28;20185;-74
2024/01/12 11:49:23;;;;;;;24.48;13.38;;;;;;;;;;6256874;28;20045;-75
2024/01/12 11:52:25;;;;;;;35.22;19.60;;;;;;;;;;6258282;28;20048;-75
2024/01/12 11:55:27;;;;;;;25.30;14.98;;;;;;;;;;6286513;28;20061;-75
2024/01/12 11:58:32;;;;;;;31.02;16.98;;;;;;;;;;6277509;28;20131;-75
2024/01/12 12:01:34;;;;;;;24.05;15.05;;;;;;;;;;6300623;28;20161;-76
2024/01/12 12:04:36;;;;;;;24.52;15.20;;;;;;;;;;6263885;28;20071;-75
2024/01/12 12:07:39;;;;;;;27.33;14.88;;;;;;;;;;6283792;28;20118;-77
2024/01/12 12:10:41;;;;;;;26.45;15.85;;;;;;;;;;6271752;28;20055;-76
2024/01/12 12:13:50;;;;;;;20.85;13.27;;;;;;;;;;6261281;28;20120;-75
2024/01/12 12:16:53;;;;;;;25.08;13.15;;;;;;;;;;6272026;28;20052;-76
2024/01/12 12:19:55;;;;;;;28.17;12.93;;;;;;;;;;6287562;28;20044;-76
2024/01/12 12:22:59;;;;;;;25.48;11.77;;;;;;;;;;6266261;28;20182;-76
2024/01/12 12:26:01;;;;;;;16.73;9.50;;;;;;;;;;6267737;28;20053;-76
2024/01/12 12:29:04;;;;;;;19.10;12.18;;;;;;;;;;6277153;28;20057;-76
2024/01/12 12:32:11;;;;;;;25.23;15.23;;;;;;;;;;6262642;28;20128;-75
2024/01/12 12:35:18;;;;;;;28.80;16.42;;;;;;;;;;6277539;28;20629;-74
2024/01/12 12:38:21;;;;;;;20.33;13.45;;;;;;;;;;6285492;28;20205;-74
2024/01/12 12:41:24;;;;;;;25.73;15.73;;;;;;;;;;6282888;28;20071;-74
2024/01/12 12:44:26;;;;;;;24.65;14.73;;;;;;;;;;6260793;28;20045;-75
2024/01/12 12:47:29;;;;;;;25.00;12.63;;;;;;;;;;6279686;28;20052;-75
2024/01/12 12:50:31;;;;;;;32.33;15.98;;;;;;;;;;6258588;28;20059;-75
2024/01/12 12:53:33;;;;;;;28.95;14.77;;;;;;;;;;6240274;28;21607;-75
2024/01/12 12:56:36;;;;;;;21.42;11.95;;;;;;;;;;6264123;28;20136;-75
2024/01/12 12:59:39;;;;;;;25.50;14.25;;;;;;;;;;6272902;28;20049;-74
2024/01/12 13:02:41;;;;;;;32.83;17.80;;;;;;;;;;6293870;28;20033;-75
2024/01/12 13:05:44;;;;;;;31.20;14.55;;;;;;;;;;6324062;28;20768;-75
2024/01/12 13:08:48;;;;;;;35.75;19.65;;;;;;;;;;6285337;28;20439;-75
2024/01/12 13:11:50;;;;;;;15.57;8.68;;;;;;;;;;6268077;28;20047;-75
2024/01/12 13:14:53;;;;;;;26.05;13.43;;;;;;;;;;6282400;28;20160;-75
2024/01/12 13:17:55;;;;;;;24.50;10.65;;;;;;;;;;6283111;28;20426;-75
2024/01/12 13:20:57;;;;;;;24.67;14.23;;;;;;;;;;6272677;28;20119;-76
2024/01/12 13:23:59;;;;;;;22.90;15.98;;;;;;;;;;6292262;28;20116;-74
2024/01/12 13:27:03;;;;;;;30.15;15.57;;;;;;;;;;6286845;28;20047;-75
2024/01/12 13:30:07;;;;;;;27.20;14.85;;;;;;;;;;6267000;28;20063;-75
2024/01/12 13:33:19;;;;;;;34.28;19.70;;;;;;;;;;6323421;27;20631;-76
2024/01/12 13:36:21;;;;;;;23.55;12.13;;;;;;;;;;6294904;28;20429;-72
2024/01/12 13:39:26;;;;;;;28.85;16.73;;;;;;;;;;6307457;28;20043;-76
2024/01/12 13:42:28;;;;;;;18.10;10.23;;;;;;;;;;6311240;27;20047;-75
2024/01/12 13:45:34;;;;;;;16.35;11.68;;;;;;;;;;6297915;28;20040;-76
2024/01/12 13:48:36;;;;;;;20.85;12.55;;;;;;;;;;6297605;28;20109;-76
2024/01/12 13:51:41;;;;;;;21.70;10.82;;;;;;;;;;6334898;28;20417;-75
2024/01/12 13:54:44;;;;;;;24.88;13.70;;;;;;;;;;6312856;28;20082;-75
2024/01/12 13:57:46;;;;;;;26.77;15.80;;;;;;;;;;6324486;28;20044;-75
2024/01/12 14:00:49;;;;;;;25.45;14.55;;;;;;;;;;6304575;28;20039;-75
2024/01/12 14:03:51;;;;;;;29.33;17.58;;;;;;;;;;6296617;28;20043;-75
2024/01/12 14:06:54;;;;;;;23.40;13.98;;;;;;;;;;6259400;28;20051;-76
2024/01/12 14:09:57;;;;;;;20.42;14.50;;;;;;;;;;6310733;28;20198;-75
2024/01/12 14:13:08;;;;;;;33.33;16.75;;;;;;;;;;6316162;28;20067;-75
2024/01/12 14:16:13;;;;;;;22.25;12.98;;;;;;;;;;6313535;28;20036;-76
2024/01/12 14:19:16;;;;;;;18.95;11.80;;;;;;;;;;6324689;28;20811;-76
2024/01/12 14:22:19;;;;;;;25.33;15.18;;;;;;;;;;6329538;28;20040;-75
2024/01/12 14:25:21;;;;;;;26.58;16.80;;;;;;;;;;6333929;28;20056;-76
2024/01/12 14:28:24;;;;;;;19.65;11.15;;;;;;;;;;6341284;28;20055;-76
2024/01/12 14:31:34;;;;;;;23.95;12.75;;;;;;;;;;6316886;28;20173;-75
2024/01/12 14:34:38;;;;;;;19.90;11.60;;;;;;;;;;6305121;28;20529;-74
2024/01/12 14:37:40;;;;;;;28.40;14.75;;;;;;;;;;6286470;28;20052;-74
2024/01/12 14:40:45;;;;;;;27.80;16.60;;;;;;;;;;6309312;28;20541;-75
2024/01/12 14:43:47;;;;;;;30.10;17.25;;;;;;;;;;6314131;28;20530;-74
2024/01/12 14:46:49;;;;;;;22.85;13.27;;;;;;;;;;6295671;28;20130;-75
2024/01/12 14:49:51;;;;;;;16.05;10.30;;;;;;;;;;6292691;28;20044;-74
2024/01/12 14:52:54;;;;;;;21.92;14.65;;;;;;;;;;6296664;28;20035;-74
2024/01/12 14:55:56;;;;;;;29.63;13.50;;;;;;;;;;6274641;28;20048;-74
2024/01/12 14:59:01;;;;;;;24.45;10.70;;;;;;;;;;6277905;28;20047;-74
2024/01/12 15:02:03;;;;;;;34.65;14.90;;;;;;;;;;6295717;28;20040;-77
2024/01/12 15:05:06;;;;;;;23.13;11.25;;;;;;;;;;6289131;28;20051;-74
2024/01/12 15:08:08;;;;;;;17.90;11.05;;;;;;;;;;6305803;28;20589;-77
2024/01/12 15:11:11;;;;;;;36.63;17.63;;;;;;;;;;6282397;28;20043;-74
2024/01/12 15:14:14;;;;;;;36.17;16.02;;;;;;;;;;6303840;28;20044;-75
2024/01/12 15:17:17;;;;;;;17.90;12.48;;;;;;;;;;6292766;28;20052;-76
2024/01/12 15:20:20;;;;;;;40.55;20.08;;;;;;;;;;6288364;28;20048;-74
2024/01/12 15:23:24;;;;;;;26.15;16.20;;;;;;;;;;6285691;28;20520;-75
2024/01/12 15:26:28;;;;;;;27.75;15.43;;;;;;;;;;6311703;28;20035;-74
2024/01/12 15:29:31;;;;;;;24.02;15.43;;;;;;;;;;6271271;28;20059;-73
2024/01/12 15:32:34;;;;;;;57.85;31.90;;;;;;;;;;6292869;28;20059;-76
2024/01/12 15:35:38;;;;;;;37.65;18.63;;;;;;;;;;6297263;28;20055;-79
2024/01/12 15:38:40;;;;;;;22.40;14.05;;;;;;;;;;6329959;28;20123;-76
2024/01/12 15:41:43;;;;;;;25.55;14.85;;;;;;;;;;6322538;28;20044;-74
2024/01/12 15:44:51;;;;;;;26.40;15.95;;;;;;;;;;6317306;28;20494;-76
2024/01/12 15:48:03;;;;;;;17.95;10.75;;;;;;;;;;6328867;28;20051;-76
2024/01/12 15:51:18;;;;;;;27.85;14.93;;;;;;;;;;6341730;28;20468;-73
2024/01/12 15:54:22;;;;;;;34.47;19.00;;;;;;;;;;6318880;28;20052;-77
2024/01/12 15:57:24;;;;;;;28.33;15.73;;;;;;;;;;6312983;28;20117;-75
2024/01/12 16:00:27;;;;;;;23.98;13.02;;;;;;;;;;6285732;28;20865;-76
2024/01/12 16:03:29;;;;;;;32.80;18.17;;;;;;;;;;6268410;28;20048;-74
2024/01/12 16:06:33;;;;;;;22.33;12.07;;;;;;;;;;6298575;28;20048;-73
2024/01/12 16:09:37;;;;;;;26.33;14.52;;;;;;;;;;6283691;28;20656;-75
2024/01/12 16:12:40;;;;;;;30.08;18.55;;;;;;;;;;6310289;28;20104;-74
2024/01/12 16:15:43;;;;;;;27.58;14.70;;;;;;;;;;6273800;28;20126;-75
2024/01/12 16:18:45;;;;;;;50.78;29.20;;;;;;;;;;6259616;28;20529;-74
2024/01/12 16:22:04;;;;;;;17.58;11.65;;;;;;;;;;6292934;28;20059;-75
2024/01/12 16:25:08;;;;;;;39.85;22.00;;;;;;;;;;6286842;28;20044;-75
2024/01/12 16:28:10;;;;;;;22.85;13.75;;;;;;;;;;6306332;28;20055;-75
2024/01/12 16:31:15;;;;;;;36.50;20.67;;;;;;;;;;6300496;28;20044;-75
2024/01/12 16:34:18;;;;;;;36.83;20.27;;;;;;;;;;6294382;28;20683;-75
2024/01/12 16:37:20;;;;;;;39.25;19.23;;;;;;;;;;6269169;28;20044;-75
2024/01/12 16:40:23;;;;;;;24.75;15.40;;;;;;;;;;6287009;28;20048;-75
2024/01/12 16:43:27;;;;;;;51.72;26.13;;;;;;;;;;6284890;28;20040;-76
2024/01/12 16:46:29;;;;;;;31.08;19.40;;;;;;;;;;6285505;28;20075;-75
2024/01/12 16:49:38;;;;;;;23.70;13.27;;;;;;;;;;6282852;28;20825;-75
2024/01/12 16:52:40;;;;;;;22.48;15.52;;;;;;;;;;6288033;28;20527;-75
2024/01/12 16:55:45;;;;;;;36.08;21.83;;;;;;;;;;6284205;28;20564;-75
2024/01/12 16:58:48;;;;;;;28.30;17.10;;;;;;;;;;6291709;28;20040;-76
2024/01/12 17:01:51;;;;;;;37.55;22.20;;;;;;;;;;6276029;28;20057;-76
2024/01/12 17:04:54;;;;;;;41.97;25.10;;;;;;;;;;6303408;28;20047;-76
2024/01/12 17:07:56;;;;;;;31.83;22.63;;;;;;;;;;6262541;28;20135;-75
2024/01/12 17:10:59;;;;;;;46.25;24.67;;;;;;;;;;6299674;28;20040;-77
2024/01/12 17:14:01;;;;;;;26.95;20.70;;;;;;;;;;6264944;28;20512;-76
2024/01/12 17:17:04;;;;;;;41.20;21.80;;;;;;;;;;6275211;28;20045;-76
2024/01/12 17:20:20;;;;;;;16.83;11.75;;;;;;;;;;6307254;28;20050;-75
2024/01/12 17:23:27;;;;;;;61.13;32.60;;;;;;;;;;6310555;28;20079;-75
2024/01/12 17:26:30;;;;;;;41.78;27.92;;;;;;;;;;6288957;28;20097;-76
2024/01/12 17:29:34;;;;;;;45.40;27.88;;;;;;;;;;6275889;28;20051;-73
2024/01/12 17:32:36;;;;;;;53.38;29.55;;;;;;;;;;6292949;28;20041;-74
2024/01/12 17:35:38;;;;;;;50.95;29.10;;;;;;;;;;6292214;28;20044;-74
2024/01/12 17:38:40;;;;;;;45.30;29.50;;;;;;;;;;6287190;28;20075;-75
2024/01/12 17:41:44;;;;;;;77.07;36.45;;;;;;;;;;6310426;28;20036;-74
2024/01/12 17:44:47;;;;;;;34.03;19.02;;;;;;;;;;6286573;28;20081;-75
2024/01/12 17:47:49;;;;;;;45.65;27.45;;;;;;;;;;6274791;28;20401;-74
2024/01/12 17:50:52;;;;;;;48.22;26.52;;;;;;;;;;6273060;28;20051;-76